createdAt,value
2019-04-10T00:01:27.824Z,101248.14
2019-04-10T00:03:33.651Z,101244.91
2019-04-10T00:05:33.914Z,101249.31
2019-04-10T00:07:35.460Z,101248.08
2019-04-10T00:09:36.851Z,101249.47
2019-04-10T00:11:38.271Z,101244.14
2019-04-10T00:13:39.714Z,101244.20
2019-04-10T00:15:42.279Z,101244.80
2019-04-10T00:17:43.841Z,101246.28
2019-04-10T00:19:45.650Z,101243.81
2019-04-10T00:21:47.353Z,101250.06
2019-04-10T00:23:49.229Z,101248.95
2019-04-10T00:25:50.870Z,101248.34
2019-04-10T00:27:52.743Z,101248.23
2019-04-10T00:29:54.424Z,101253.54
2019-04-10T00:31:56.379Z,101248.34
2019-04-10T00:33:58.899Z,101251.00
2019-04-10T00:36:01.529Z,101247.78
2019-04-10T00:38:03.083Z,101247.58
2019-04-10T00:40:05.227Z,101249.28
2019-04-10T00:42:06.706Z,101249.73
2019-04-10T00:44:08.098Z,101255.09
2019-04-10T00:46:10.267Z,101254.95
2019-04-10T00:48:11.983Z,101256.06
2019-04-10T00:50:14.631Z,101250.08
2019-04-10T00:52:16.371Z,101251.03
2019-04-10T00:54:18.173Z,101256.91
2019-04-10T00:56:20.705Z,101256.91
2019-04-10T00:58:22.514Z,101257.02
2019-04-10T01:00:24.064Z,101255.39
2019-04-10T01:02:25.415Z,101259.08
2019-04-10T01:04:26.778Z,101256.22
2019-04-10T01:06:28.315Z,101258.59
2019-04-10T01:08:30.699Z,101257.70
2019-04-10T01:10:32.457Z,101261.48
2019-04-10T01:12:34.256Z,101259.65
2019-04-10T01:14:35.963Z,101262.77
2019-04-10T01:16:37.719Z,101260.25
2019-04-10T01:18:39.542Z,101261.89
2019-04-10T01:20:41.791Z,101261.63
2019-04-10T01:22:43.513Z,101259.08
2019-04-10T01:24:45.978Z,101259.16
2019-04-10T01:26:47.620Z,101257.75
2019-04-10T01:28:49.236Z,101255.19
2019-04-10T01:30:50.779Z,101252.31
2019-04-10T01:32:52.375Z,101254.02
2019-04-10T01:34:53.959Z,101253.52
2019-04-10T01:36:56.404Z,101254.12
2019-04-10T01:38:57.922Z,101256.70
2019-04-10T01:40:59.436Z,101256.18
2019-04-10T01:43:08.253Z,101257.34
2019-04-10T01:45:05.264Z,101252.82
2019-04-10T01:47:06.817Z,101249.64
2019-04-10T01:49:09.193Z,101259.06
2019-04-10T01:51:10.821Z,101256.06
2019-04-10T01:53:13.333Z,101256.66
2019-04-10T01:55:23.871Z,101258.98
2019-04-10T01:57:18.171Z,101263.41
2019-04-10T01:59:21.568Z,101260.63
2019-04-10T02:01:28.332Z,101263.13
2019-04-10T02:03:29.906Z,101257.28
2019-04-10T02:05:32.458Z,101261.18
2019-04-10T02:07:34.105Z,101261.64
2019-04-10T02:09:35.526Z,101260.84
2019-04-10T02:11:37.659Z,101258.92
2019-04-10T02:13:39.347Z,101267.64
2019-04-10T02:15:41.838Z,101267.81
2019-04-10T02:17:44.421Z,101264.13
2019-04-10T02:19:46.093Z,101264.75
2019-04-10T02:21:47.791Z,101264.45
2019-04-10T02:23:50.253Z,101259.92
2019-04-10T02:25:52.758Z,101260.58
2019-04-10T02:27:54.491Z,101262.22
2019-04-10T02:29:55.883Z,101257.67
2019-04-10T02:31:57.553Z,101255.88
2019-04-10T02:33:59.925Z,101259.92
2019-04-10T02:36:03.703Z,101257.09
2019-04-10T02:38:22.181Z,101250.18
2019-04-10T02:40:10.102Z,101250.36
2019-04-10T02:42:12.271Z,101246.75
2019-04-10T02:44:14.106Z,101243.17
2019-04-10T02:46:15.685Z,101243.45
2019-04-10T02:48:17.213Z,101242.00
2019-04-10T02:50:18.909Z,101245.11
2019-04-10T02:52:20.434Z,101243.16
2019-04-10T02:54:21.812Z,101244.39
2019-04-10T02:56:25.229Z,101249.09
2019-04-10T02:58:27.111Z,101246.48
2019-04-10T03:00:30.192Z,101247.11
2019-04-10T03:02:33.497Z,101249.91
2019-04-10T03:04:35.266Z,101251.98
2019-04-10T03:06:37.529Z,101253.00
2019-04-10T03:08:54.929Z,101255.76
2019-04-10T03:10:49.717Z,101256.47
2019-04-10T03:12:46.500Z,101254.08
2019-04-10T03:14:49.841Z,101258.23
2019-04-10T03:16:51.923Z,101261.19
2019-04-10T03:18:53.305Z,101263.66
2019-04-10T03:20:54.725Z,101264.45
2019-04-10T03:22:56.872Z,101263.91
2019-04-10T03:24:58.425Z,101265.17
2019-04-10T03:26:59.786Z,101269.73
2019-04-10T03:29:01.154Z,101266.64
2019-04-10T03:31:04.856Z,101265.52
2019-04-10T03:33:19.136Z,101268.45
2019-04-10T03:35:18.762Z,101272.88
2019-04-10T03:37:20.292Z,101275.62
2019-04-10T03:39:21.731Z,101273.86
2019-04-10T03:41:24.059Z,101274.67
2019-04-10T03:43:25.834Z,101275.00
2019-04-10T03:45:28.497Z,101278.54
2019-04-10T03:47:30.001Z,101275.61
2019-04-10T03:49:31.432Z,101270.94
2019-04-10T03:51:32.800Z,101278.35
2019-04-10T03:53:34.194Z,101279.34
2019-04-10T03:55:36.783Z,101277.39
2019-04-10T03:57:38.564Z,101279.81
2019-04-10T03:59:41.433Z,101279.82
2019-04-10T04:01:43.350Z,101277.25
2019-04-10T04:03:44.809Z,101280.34
2019-04-10T04:05:46.732Z,101279.37
2019-04-10T04:07:48.504Z,101285.65
2019-04-10T04:09:49.918Z,101284.34
2019-04-10T04:11:51.278Z,101285.48
2019-04-10T04:13:52.711Z,101281.59
2019-04-10T04:15:54.693Z,101285.23
2019-04-10T04:17:56.876Z,101287.45
2019-04-10T04:19:58.795Z,101290.04
2019-04-10T04:22:00.620Z,101293.62
2019-04-10T04:24:02.081Z,101284.61
2019-04-10T04:26:03.455Z,101286.11
2019-04-10T04:28:04.826Z,101288.88
2019-04-10T04:30:07.039Z,101291.00
2019-04-10T04:32:08.928Z,101290.51
2019-04-10T04:34:10.364Z,101287.41
2019-04-10T04:36:12.313Z,101283.22
2019-04-10T04:38:13.755Z,101283.88
2019-04-10T04:40:15.376Z,101285.82
2019-04-10T04:42:17.043Z,101278.86
2019-04-10T04:44:18.565Z,101280.30
2019-04-10T04:46:20.537Z,101281.92
2019-04-10T04:48:22.080Z,101284.34
2019-04-10T04:50:24.701Z,101287.42
2019-04-10T04:52:26.211Z,101292.94
2019-04-10T04:54:27.584Z,101295.55
2019-04-10T04:56:29.058Z,101296.05
2019-04-10T04:58:30.549Z,101295.56
2019-04-10T05:00:32.063Z,101297.50
2019-04-10T05:02:34.623Z,101306.23
2019-04-10T05:04:37.322Z,101305.72
2019-04-10T05:06:39.574Z,101309.79
2019-04-10T05:08:41.979Z,101308.45
2019-04-10T05:10:43.929Z,101310.44
2019-04-10T05:12:45.289Z,101306.72
2019-04-10T05:14:46.661Z,101309.16
2019-04-10T05:16:48.062Z,101311.89
2019-04-10T05:18:50.101Z,101317.88
2019-04-10T05:20:52.655Z,101314.34
2019-04-10T05:22:55.220Z,101317.73
2019-04-10T05:24:56.703Z,101324.20
2019-04-10T05:26:59.209Z,101321.80
2019-04-10T05:29:00.690Z,101329.52
2019-04-10T05:31:02.996Z,101334.89
2019-04-10T05:33:04.614Z,101335.21
2019-04-10T05:35:08.390Z,101334.06
2019-04-10T05:37:09.558Z,101339.12
2019-04-10T05:39:10.969Z,101339.77
2019-04-10T05:41:13.267Z,101336.67
2019-04-10T05:43:14.840Z,101338.42
2019-04-10T05:45:17.035Z,101336.62
2019-04-10T05:47:19.280Z,101342.30
2019-04-10T05:49:20.789Z,101336.09
2019-04-10T05:51:23.341Z,101338.98
2019-04-10T05:53:24.792Z,101340.84
2019-04-10T05:55:26.639Z,101337.25
2019-04-10T05:57:28.793Z,101339.33
2019-04-10T05:59:30.522Z,101337.73
2019-04-10T06:01:35.892Z,101339.58
2019-04-10T06:03:35.223Z,101341.78
2019-04-10T06:05:36.650Z,101342.53
2019-04-10T06:07:38.157Z,101341.59
2019-04-10T06:09:51.998Z,101340.83
2019-04-10T06:11:44.530Z,101346.94
2019-04-10T06:13:46.417Z,101341.27
2019-04-10T06:15:47.787Z,101341.98
2019-04-10T06:17:49.202Z,101343.91
2019-04-10T06:19:51.057Z,101338.02
2019-04-10T06:21:52.572Z,101333.21
2019-04-10T06:23:54.006Z,101332.30
2019-04-10T06:25:56.349Z,101331.52
2019-04-10T06:27:58.910Z,101329.23
2019-04-10T06:30:01.747Z,101330.41
2019-04-10T06:32:03.349Z,101328.92
2019-04-10T06:34:04.730Z,101331.69
2019-04-10T06:36:06.118Z,101335.34
2019-04-10T06:38:07.638Z,101328.87
2019-04-10T06:40:16.957Z,101329.98
2019-04-10T06:42:12.688Z,101328.81
2019-04-10T06:44:14.123Z,101331.94
2019-04-10T06:46:16.647Z,101327.25
2019-04-10T06:48:19.177Z,101329.33
2019-04-10T06:50:21.082Z,101330.48
2019-04-10T06:52:23.533Z,101331.39
2019-04-10T06:54:25.059Z,101333.45
2019-04-10T06:56:27.155Z,101332.49
2019-04-10T06:58:28.693Z,101337.35
2019-04-10T07:00:30.668Z,101327.75
2019-04-10T07:02:33.869Z,101334.34
2019-04-10T07:04:44.085Z,101329.61
2019-04-10T07:06:49.787Z,101333.28
2019-04-10T07:08:45.366Z,101331.48
2019-04-10T07:10:54.233Z,101330.25
2019-04-10T07:12:48.854Z,101330.97
2019-04-10T07:14:51.554Z,101335.52
2019-04-10T07:16:53.498Z,101332.88
2019-04-10T07:18:54.902Z,101339.14
2019-04-10T07:20:59.604Z,101337.56
2019-04-10T07:22:59.633Z,101332.74
2019-04-10T07:25:01.070Z,101329.33
2019-04-10T07:27:06.296Z,101326.28
2019-04-10T07:29:08.819Z,101335.66
2019-04-10T07:31:11.542Z,101332.04
2019-04-10T07:33:16.584Z,101335.75
2019-04-10T07:35:19.590Z,101340.31
2019-04-10T07:37:21.670Z,101340.09
2019-04-10T07:39:26.037Z,101346.39
2019-04-10T07:41:26.691Z,101341.53
2019-04-10T07:43:29.509Z,101347.83
2019-04-10T07:45:31.343Z,101346.07
2019-04-10T07:47:32.812Z,101345.58
2019-04-10T07:49:34.980Z,101352.41
2019-04-10T07:51:37.539Z,101347.84
2019-04-10T07:53:39.425Z,101349.20
2019-04-10T07:55:42.076Z,101344.81
2019-04-10T07:57:47.277Z,101352.72
2019-04-10T07:59:47.594Z,101348.04
2019-04-10T08:01:49.508Z,101349.61
2019-04-10T08:03:52.470Z,101352.49
2019-04-10T08:05:54.757Z,101355.32
2019-04-10T08:07:57.426Z,101349.80
2019-04-10T08:09:59.253Z,101354.33
2019-04-10T08:12:00.862Z,101362.29
2019-04-10T08:14:03.448Z,101357.19
2019-04-10T08:16:06.310Z,101365.98
2019-04-10T08:18:07.821Z,101364.03
2019-04-10T08:20:09.995Z,101363.31
2019-04-10T08:22:12.322Z,101362.01
2019-04-10T08:24:13.796Z,101365.75
2019-04-10T08:26:16.233Z,101368.61
2019-04-10T08:28:17.889Z,101367.17
2019-04-10T08:30:19.617Z,101366.51
2019-04-10T08:32:21.612Z,101366.73
2019-04-10T08:34:23.734Z,101367.09
2019-04-10T08:36:25.577Z,101368.48
2019-04-10T08:38:28.022Z,101371.57
2019-04-10T08:40:30.013Z,101369.77
2019-04-10T08:42:31.534Z,101370.03
2019-04-10T08:44:33.140Z,101365.17
2019-04-10T08:46:35.660Z,101367.26
2019-04-10T08:48:37.214Z,101366.73
2019-04-10T08:50:38.645Z,101359.16
2019-04-10T08:52:40.982Z,101365.73
2019-04-10T08:54:42.593Z,101364.44
2019-04-10T08:56:44.945Z,101358.45
2019-04-10T08:58:48.236Z,101361.52
2019-04-10T09:00:51.467Z,101359.83
2019-04-10T09:02:52.917Z,101365.55
2019-04-10T09:04:55.246Z,101366.50
2019-04-10T09:06:57.888Z,101358.05
2019-04-10T09:08:59.692Z,101355.93
2019-04-10T09:11:01.078Z,101357.81
2019-04-10T09:13:02.682Z,101355.24
2019-04-10T09:15:05.556Z,101357.08
2019-04-10T09:17:07.070Z,101354.53
2019-04-10T09:19:08.497Z,101362.10
2019-04-10T09:21:11.175Z,101352.44
2019-04-10T09:23:23.511Z,101350.45
2019-04-10T09:25:17.487Z,101347.88
2019-04-10T09:27:19.265Z,101348.16
2019-04-10T09:29:23.043Z,101348.20
2019-04-10T09:31:23.959Z,101347.81
2019-04-10T09:33:28.212Z,101347.28
2019-04-10T09:35:28.805Z,101347.19
2019-04-10T09:37:31.156Z,101355.33
2019-04-10T09:39:33.716Z,101349.55
2019-04-10T09:41:36.198Z,101357.44
2019-04-10T09:43:37.987Z,101348.03
2019-04-10T09:45:39.521Z,101349.71
2019-04-10T09:47:41.726Z,101355.84
2019-04-10T09:49:46.237Z,101354.95
2019-04-10T09:51:46.526Z,101354.63
2019-04-10T09:53:48.931Z,101358.52
2019-04-10T09:55:50.371Z,101352.20
2019-04-10T09:57:51.897Z,101348.11
2019-04-10T09:59:54.520Z,101346.69
2019-04-10T10:01:56.343Z,101347.97
2019-04-10T10:03:57.834Z,101341.81
2019-04-10T10:06:00.328Z,101346.13
2019-04-10T10:08:02.537Z,101336.53
2019-04-10T10:10:06.589Z,101337.61
2019-04-10T10:12:08.128Z,101338.73
2019-04-10T10:14:10.390Z,101338.41
2019-04-10T10:16:11.904Z,101336.58
2019-04-10T10:18:13.279Z,101333.86
2019-04-10T10:20:15.416Z,101338.58
2019-04-10T10:22:16.940Z,101345.14
2019-04-10T10:24:18.459Z,101346.79
2019-04-10T10:26:20.350Z,101345.36
2019-04-10T10:28:22.795Z,101343.33
2019-04-10T10:30:25.136Z,101347.70
2019-04-10T10:32:26.739Z,101347.88
2019-04-10T10:34:28.325Z,101336.26
2019-04-10T10:36:36.857Z,101342.50
2019-04-10T10:38:33.077Z,101342.48
2019-04-10T10:40:34.479Z,101342.08
2019-04-10T10:42:38.519Z,101339.75
2019-04-10T10:44:40.373Z,101334.77
2019-04-10T10:46:41.954Z,101344.39
2019-04-10T10:48:44.157Z,101336.11
2019-04-10T10:50:45.727Z,101338.05
2019-04-10T10:52:47.938Z,101337.00
2019-04-10T10:54:49.480Z,101334.73
2019-04-10T10:56:51.015Z,101329.34
2019-04-10T10:58:53.172Z,101327.00
2019-04-10T11:00:55.723Z,101327.44
2019-04-10T11:02:58.103Z,101325.42
2019-04-10T11:05:02.390Z,101325.50
2019-04-10T11:07:03.194Z,101321.81
2019-04-10T11:09:08.346Z,101317.36
2019-04-10T11:11:10.276Z,101320.31
2019-04-10T11:13:12.725Z,101315.64
2019-04-10T11:15:14.189Z,101318.33
2019-04-10T11:17:16.059Z,101318.66
2019-04-10T11:19:19.722Z,101306.52
2019-04-10T11:21:22.723Z,101307.84
2019-04-10T11:23:24.533Z,101307.42
2019-04-10T11:25:26.160Z,101312.95
2019-04-10T11:27:28.080Z,101305.38
2019-04-10T11:29:31.448Z,101309.62
2019-04-10T11:31:33.340Z,101314.84
2019-04-10T11:33:34.942Z,101310.67
2019-04-10T11:35:37.329Z,101311.36
2019-04-10T11:37:44.429Z,101320.60
2019-04-10T11:39:43.969Z,101315.69
2019-04-10T11:41:46.381Z,101316.34
2019-04-10T11:43:50.133Z,101316.01
2019-04-10T11:45:54.558Z,101305.71
2019-04-10T11:47:56.474Z,101307.25
2019-04-10T11:49:59.375Z,101310.92
2019-04-10T11:52:01.906Z,101311.27
2019-04-10T11:54:07.782Z,101310.70
2019-04-10T11:56:08.749Z,101307.87
2019-04-10T11:58:15.547Z,101309.00
2019-04-10T12:00:19.847Z,101319.52
2019-04-10T12:02:21.891Z,101312.33
2019-04-10T12:04:23.459Z,101308.58
2019-04-10T12:06:25.512Z,101307.63
2019-04-10T12:08:50.393Z,101311.11
2019-04-10T12:12:35.442Z,101301.08
2019-04-10T12:14:37.384Z,101299.47
2019-04-10T12:16:39.008Z,101309.75
2019-04-10T12:18:40.591Z,101305.77
2019-04-10T12:20:43.122Z,101307.55
2019-04-10T12:22:44.612Z,101302.93
2019-04-10T12:24:48.879Z,101304.64
2019-04-10T12:26:49.897Z,101313.06
2019-04-10T12:28:51.917Z,101313.62
2019-04-10T12:30:53.431Z,101318.00
2019-04-10T12:32:54.911Z,101311.70
2019-04-10T12:34:56.394Z,101308.11
2019-04-10T12:36:58.749Z,101311.20
2019-04-10T12:39:00.361Z,101306.87
2019-04-10T12:41:01.832Z,101308.37
2019-04-10T12:43:03.539Z,101314.42
2019-04-10T12:45:06.319Z,101316.39
2019-04-10T12:47:07.967Z,101315.48
2019-04-10T12:49:09.595Z,101315.65
2019-04-10T12:51:11.873Z,101316.28
2019-04-10T12:53:13.558Z,101317.30
2019-04-10T12:55:16.417Z,101311.04
2019-04-10T12:57:19.660Z,101317.23
2019-04-10T12:59:21.523Z,101315.11
2019-04-10T13:01:22.989Z,101313.36
2019-04-10T13:03:25.101Z,101303.05
2019-04-10T13:05:27.340Z,101307.91
2019-04-10T13:07:29.682Z,101304.59
2019-04-10T13:09:31.750Z,101304.69
2019-04-10T13:11:34.292Z,101302.95
2019-04-10T13:13:35.888Z,101306.61
2019-04-10T13:15:37.310Z,101296.23
2019-04-10T13:17:38.727Z,101307.71
2019-04-10T13:19:40.962Z,101313.70
2019-04-10T13:21:42.494Z,101313.97
2019-04-10T13:23:44.756Z,101308.39
2019-04-10T13:25:55.061Z,101309.84
2019-04-10T13:27:50.727Z,101306.44
2019-04-10T13:29:52.275Z,101306.80
2019-04-10T13:31:53.787Z,101309.37
2019-04-10T13:33:55.202Z,101307.28
2019-04-10T13:35:57.605Z,101312.45
2019-04-10T13:37:59.065Z,101315.25
2019-04-10T13:40:01.654Z,101318.77
2019-04-10T13:42:05.025Z,101322.40
2019-04-10T13:44:06.624Z,101321.89
2019-04-10T13:46:08.758Z,101319.94
2019-04-10T13:48:10.236Z,101309.94
2019-04-10T13:50:12.718Z,101312.59
2019-04-10T13:52:14.195Z,101313.89
2019-04-10T13:54:16.516Z,101316.24
2019-04-10T13:56:19.119Z,101317.91
2019-04-10T13:58:21.330Z,101315.36
2019-04-10T14:00:33.728Z,101317.53
2019-04-10T14:02:38.089Z,101316.44
2019-04-10T14:04:39.465Z,101322.22
2019-04-10T14:06:41.464Z,101318.72
2019-04-10T14:09:03.131Z,101318.66
2019-04-10T14:10:46.812Z,101321.26
2019-04-10T14:12:49.334Z,101314.17
2019-04-10T14:14:51.059Z,101314.09
2019-04-10T14:16:53.051Z,101318.11
2019-04-10T14:18:54.482Z,101320.60
2019-04-10T14:20:55.860Z,101316.98
2019-04-10T14:23:11.073Z,101309.92
2019-04-10T14:25:19.972Z,101318.88
2019-04-10T14:27:24.415Z,101315.25
2019-04-10T14:29:26.883Z,101319.76
2019-04-10T14:31:30.332Z,101319.62
2019-04-10T14:33:32.471Z,101324.95
2019-04-10T14:35:34.015Z,101331.61
2019-04-10T14:37:35.725Z,101333.91
2019-04-10T14:39:37.660Z,101335.20
2019-04-10T14:41:39.978Z,101328.77
2019-04-10T14:43:43.011Z,101333.88
2019-04-10T14:45:45.837Z,101328.77
2019-04-10T14:47:47.649Z,101327.66
2019-04-10T14:49:49.288Z,101326.08
2019-04-10T14:51:50.806Z,101326.94
2019-04-10T14:53:52.256Z,101321.16
2019-04-10T14:55:53.632Z,101324.60
2019-04-10T14:57:55.027Z,101323.12
2019-04-10T14:59:56.407Z,101327.92
2019-04-10T15:01:58.041Z,101332.47
2019-04-10T15:04:00.554Z,101327.50
2019-04-10T15:06:02.711Z,101335.75
2019-04-10T15:08:04.368Z,101335.44
2019-04-10T15:10:07.989Z,101339.05
2019-04-10T15:12:10.072Z,101335.78
2019-04-10T15:14:13.184Z,101337.72
2019-04-10T15:16:14.851Z,101341.16
2019-04-10T15:18:16.223Z,101344.85
2019-04-10T15:20:17.602Z,101347.62
2019-04-10T15:22:20.014Z,101350.36
2019-04-10T15:24:21.688Z,101344.16
2019-04-10T15:26:23.977Z,101350.03
2019-04-10T15:28:25.725Z,101345.92
2019-04-10T15:30:27.085Z,101351.54
2019-04-10T15:32:29.427Z,101346.64
2019-04-10T15:34:30.886Z,101350.52
2019-04-10T15:36:32.245Z,101345.36
2019-04-10T15:38:33.905Z,101348.70
2019-04-10T15:40:36.446Z,101338.09
2019-04-10T15:42:38.791Z,101350.81
2019-04-10T15:44:40.813Z,101349.55
2019-04-10T15:46:43.310Z,101350.30
2019-04-10T15:48:46.052Z,101344.20
2019-04-10T15:50:47.707Z,101359.94
2019-04-10T15:52:49.334Z,101357.62
2019-04-10T15:54:53.316Z,101362.27
2019-04-10T15:56:54.334Z,101358.99
2019-04-10T15:58:56.870Z,101358.41
2019-04-10T16:00:59.430Z,101365.57
2019-04-10T16:03:00.943Z,101359.75
2019-04-10T16:05:05.132Z,101364.91
2019-04-10T16:07:06.526Z,101366.45
2019-04-10T16:09:07.900Z,101371.02
2019-04-10T16:11:11.859Z,101372.05
2019-04-10T16:13:16.247Z,101371.98
2019-04-10T16:15:18.127Z,101372.39
2019-04-10T16:17:33.525Z,101380.38
2019-04-10T16:19:54.225Z,101377.61
2019-04-10T16:21:56.346Z,101379.84
2019-04-10T16:24:00.500Z,101379.95
2019-04-10T16:26:02.908Z,101384.42
2019-04-10T16:28:04.491Z,101397.04
2019-04-10T16:30:08.353Z,101395.00
2019-04-10T16:32:10.693Z,101392.12
2019-04-10T16:34:12.147Z,101393.78
2019-04-10T16:36:13.552Z,101395.42
2019-04-10T16:38:14.949Z,101393.98
2019-04-10T16:40:16.885Z,101400.11
2019-04-10T16:42:18.968Z,101397.22
2019-04-10T16:44:21.354Z,101404.70
2019-04-10T16:46:23.810Z,101402.84
2019-04-10T16:48:26.424Z,101402.81
2019-04-10T16:50:28.069Z,101404.95
2019-04-10T16:52:29.446Z,101402.38
2019-04-10T16:54:31.316Z,101402.76
2019-04-10T16:56:33.798Z,101405.39
2019-04-10T16:58:35.331Z,101410.59
2019-04-10T17:00:37.730Z,101411.77
2019-04-10T17:02:40.141Z,101411.11
2019-04-10T17:04:41.741Z,101419.31
2019-04-10T17:06:44.195Z,101414.99
2019-04-10T17:08:45.972Z,101420.20
2019-04-10T17:10:48.303Z,101425.44
2019-04-10T17:12:49.825Z,101426.13
2019-04-10T17:14:51.331Z,101426.71
2019-04-10T17:16:53.653Z,101429.91
2019-04-10T17:18:55.250Z,101428.75
2019-04-10T17:20:57.239Z,101429.09
2019-04-10T17:23:00.301Z,101433.13
2019-04-10T17:25:04.152Z,101432.53
2019-04-10T17:27:06.413Z,101439.88
2019-04-10T17:29:09.234Z,101436.30
2019-04-10T17:31:11.128Z,101436.18
2019-04-10T17:33:13.187Z,101442.94
2019-04-10T17:35:15.722Z,101443.29
2019-04-10T17:37:17.913Z,101447.77
2019-04-10T17:39:20.011Z,101452.00
2019-04-10T17:41:21.830Z,101458.04
2019-04-10T17:43:23.467Z,101462.05
2019-04-10T17:45:25.816Z,101464.87
2019-04-10T17:47:29.168Z,101465.26
2019-04-10T17:49:31.800Z,101467.02
2019-04-10T17:51:34.236Z,101467.92
2019-04-10T17:53:35.827Z,101472.17
2019-04-10T17:55:37.699Z,101478.02
2019-04-10T17:57:43.080Z,101478.59
2019-04-10T17:59:42.840Z,101478.09
2019-04-10T18:01:45.198Z,101484.67
2019-04-10T18:03:52.140Z,101486.61
2019-04-10T18:05:50.923Z,101489.38
2019-04-10T18:07:52.452Z,101490.91
2019-04-10T18:09:53.948Z,101491.56
2019-04-10T18:11:56.334Z,101502.88
2019-04-10T18:13:58.639Z,101502.42
2019-04-10T18:16:00.238Z,101512.91
2019-04-10T18:18:01.611Z,101505.84
2019-04-10T18:20:04.613Z,101512.69
2019-04-10T18:22:06.801Z,101518.76
2019-04-10T18:24:08.273Z,101521.19
2019-04-10T18:26:10.700Z,101522.82
2019-04-10T18:28:12.155Z,101527.45
2019-04-10T18:30:14.149Z,101525.35
2019-04-10T18:32:15.874Z,101529.58
2019-04-10T18:34:17.339Z,101530.03
2019-04-10T18:36:19.554Z,101534.84
2019-04-10T18:38:21.578Z,101533.27
2019-04-10T18:40:23.356Z,101529.84
2019-04-10T18:42:24.809Z,101535.36
2019-04-10T18:44:26.222Z,101539.99
2019-04-10T18:46:27.628Z,101544.25
2019-04-10T18:48:29.043Z,101549.02
2019-04-10T18:50:30.431Z,101550.98
2019-04-10T18:52:32.315Z,101547.87
2019-04-10T18:54:34.038Z,101556.62
2019-04-10T18:56:35.521Z,101555.74
2019-04-10T18:58:38.782Z,101563.44
2019-04-10T19:00:58.834Z,101565.45
2019-04-10T19:03:03.332Z,101563.86
2019-04-10T19:05:07.593Z,101566.37
2019-04-10T19:07:09.191Z,101557.05
2019-04-10T19:09:18.511Z,101562.77
2019-04-10T19:11:21.110Z,101568.95
2019-04-10T19:13:17.334Z,101568.50
2019-04-10T19:15:18.695Z,101567.75
2019-04-10T19:17:20.385Z,101572.20
2019-04-10T19:19:21.806Z,101579.63
2019-04-10T19:21:24.092Z,101578.30
2019-04-10T19:23:25.555Z,101581.12
2019-04-10T19:25:27.247Z,101584.06
2019-04-10T19:27:28.556Z,101579.77
2019-04-10T19:29:29.966Z,101580.91
2019-04-10T19:31:35.463Z,101578.72
2019-04-10T19:33:35.349Z,101581.52
2019-04-10T19:35:37.281Z,101582.48
2019-04-10T19:37:38.870Z,101580.08
2019-04-10T19:39:40.514Z,101583.31
2019-04-10T19:41:42.036Z,101582.98
2019-04-10T19:43:43.469Z,101579.07
2019-04-10T19:45:44.819Z,101587.67
2019-04-10T19:47:46.432Z,101583.39
2019-04-10T19:49:48.726Z,101581.52
2019-04-10T19:51:50.860Z,101593.81
2019-04-10T19:53:53.378Z,101591.84
2019-04-10T19:55:55.938Z,101589.02
2019-04-10T19:57:57.509Z,101595.22
2019-04-10T19:59:59.949Z,101598.20
2019-04-10T20:02:02.412Z,101597.75
2019-04-10T20:04:04.038Z,101598.48
2019-04-10T20:06:05.953Z,101604.77
2019-04-10T20:08:07.705Z,101605.05
2019-04-10T20:10:10.802Z,101609.46
2019-04-10T20:12:12.815Z,101607.91
2019-04-10T20:14:15.438Z,101609.46
2019-04-10T20:16:17.639Z,101612.64
2019-04-10T20:18:19.139Z,101611.91
2019-04-10T20:20:21.405Z,101608.92
2019-04-10T20:22:23.076Z,101607.34
2019-04-10T20:24:25.050Z,101613.94
2019-04-10T20:26:27.311Z,101612.48
2019-04-10T20:28:28.909Z,101621.73
2019-04-10T20:30:32.854Z,101627.00
2019-04-10T20:32:34.351Z,101631.88
2019-04-10T20:34:35.833Z,101629.98
2019-04-10T20:36:38.877Z,101627.92
2019-04-10T20:38:40.857Z,101628.51
2019-04-10T20:40:42.348Z,101630.91
2019-04-10T20:42:44.628Z,101631.13
2019-04-10T20:44:47.066Z,101632.89
2019-04-10T20:46:48.806Z,101633.44
2019-04-10T20:48:50.856Z,101637.26
2019-04-10T20:50:52.371Z,101641.27
2019-04-10T20:52:53.790Z,101635.81
2019-04-10T20:54:55.337Z,101639.34
2019-04-10T20:56:57.069Z,101649.06
2019-04-10T20:58:59.332Z,101646.72
2019-04-10T21:01:01.014Z,101652.34
2019-04-10T21:03:02.877Z,101656.72
2019-04-10T21:05:08.004Z,101658.02
2019-04-10T21:07:08.996Z,101659.92
2019-04-10T21:09:11.738Z,101660.96
2019-04-10T21:11:13.855Z,101665.48
2019-04-10T21:13:15.378Z,101664.53
2019-04-10T21:15:17.420Z,101664.03
2019-04-10T21:17:18.902Z,101671.80
2019-04-10T21:19:20.652Z,101678.23
2019-04-10T21:21:22.272Z,101677.70
2019-04-10T21:23:23.844Z,101678.75
2019-04-10T21:25:25.409Z,101678.96
2019-04-10T21:27:27.668Z,101680.54
2019-04-10T21:29:46.509Z,101680.73
2019-04-10T21:32:01.733Z,101688.45
2019-04-10T21:34:23.076Z,101691.98
2019-04-10T21:36:24.490Z,101696.70
2019-04-10T21:38:25.895Z,101698.80
2019-04-10T21:40:27.312Z,101697.87
2019-04-10T21:42:29.707Z,101708.35
2019-04-10T21:44:31.488Z,101716.61
2019-04-10T21:46:32.986Z,101717.76
2019-04-10T21:48:35.062Z,101717.43
2019-04-10T21:50:37.616Z,101717.70
2019-04-10T21:52:39.322Z,101727.59
2019-04-10T21:54:49.586Z,101722.61
2019-04-10T21:56:45.099Z,101720.70
2019-04-10T21:58:46.632Z,101722.77
2019-04-10T22:00:55.623Z,101727.34
2019-04-10T22:02:56.975Z,101733.47
2019-04-10T22:04:59.616Z,101730.36
2019-04-10T22:07:20.340Z,101730.30
2019-04-10T22:09:23.750Z,101729.02
2019-04-10T22:11:25.529Z,101729.81
2019-04-10T22:13:27.914Z,101732.55
2019-04-10T22:15:41.479Z,101730.02
2019-04-10T22:17:42.967Z,101731.44
2019-04-10T22:19:45.237Z,101728.69
2019-04-10T22:21:46.839Z,101733.95
2019-04-10T22:23:49.038Z,101730.92
2019-04-10T22:25:52.143Z,101734.69
2019-04-10T22:27:54.270Z,101736.28
2019-04-10T22:29:56.329Z,101743.16
2019-04-10T22:31:57.850Z,101741.83
2019-04-10T22:33:59.408Z,101740.94
2019-04-10T22:36:00.783Z,101745.52
2019-04-10T22:38:02.639Z,101748.71
2019-04-10T22:40:04.971Z,101750.80
2019-04-10T22:42:07.538Z,101750.78
2019-04-10T22:44:09.741Z,101747.85
2019-04-10T22:46:11.186Z,101746.02
2019-04-10T22:48:12.574Z,101750.69
2019-04-10T22:50:14.001Z,101751.15
2019-04-10T22:52:15.521Z,101749.41
2019-04-10T22:54:17.907Z,101750.06
2019-04-10T22:56:19.402Z,101750.85
2019-04-10T22:58:21.225Z,101752.25
2019-04-10T23:00:24.626Z,101750.20
2019-04-10T23:02:26.000Z,101754.59
2019-04-10T23:04:28.559Z,101751.16
2019-04-10T23:06:31.371Z,101756.70
2019-04-10T23:08:33.692Z,101755.06
2019-04-10T23:10:35.356Z,101755.16
2019-04-10T23:12:49.704Z,101758.70
2019-04-10T23:14:39.952Z,101758.68
2019-04-10T23:16:41.368Z,101761.72
2019-04-10T23:18:42.732Z,101762.53